Nearby METAR Reports

 

KBVO - Bartlesville, Oklahoma, USA
Distance from station: WNW 10mi, 16km
Updated: Mon, 12-Apr-2021 5:53am CDT
Clear
Clear
 Wind from N
Wind: N 13 mph , 20 km/h
Temperature: 52°F , 11°C
Dew Point: 34°F , 1°C
Humidity: 50%
Barometer: 29.91 inHg , 1012.9 hPa
Clouds: Clear
Visibility: 10 miles , 16 km
2021/04/12 10:53 KBVO 121053Z AUTO 36011KT 10SM CLR 11/01 A2991 RMK AO2 SLP119 T01110006
KCFV - Coffeyville, Kansas, USA
Distance from station: NNE 31mi, 49km
Updated: Mon, 12-Apr-2021 5:52am CDT
Clear
Clear
 Wind from N
Wind: N 9 mph , 15 km/h
Temperature: 52°F , 11°C
Dew Point: 30°F , -1°C
Humidity: 44%
Barometer: 29.89 inHg , 1012.2 hPa
Clouds: Clear
Visibility: 10 miles , 16 km
2021/04/12 10:52 KCFV 121052Z AUTO 36008KT 10SM CLR 11/M01 A2989 RMK AO2 SLP117 T01061006 $
 
KIDP - Independence, Kansas, USA
Distance from station: N 32mi, 52km
Updated: Mon, 12-Apr-2021 6:15am CDT
Clear
Clear
 Wind from N
Wind: N 14 mph , 22 km/h
Temperature: 50°F , 10°C
Wind Chill: 45°F , 7°C
Dew Point: 32°F , 0°C
Humidity: 50%
Barometer: 29.92 inHg , 1013.2 hPa
Clouds: Clear
Visibility: 10 miles , 16 km
2021/04/12 11:15 KIDP 121115Z AUTO 36012KT 10SM CLR 10/00 A2992 RMK AO2 T00961001
KGCM - Claremore, Oklahoma, USA
Distance from station: SE 35mi, 56km
Updated: Mon, 12-Apr-2021 6:35am CDT
Clear
Clear
 Wind from NNE
Wind: NNE 7 mph , 11 km/h
Temperature: 50°F , 10°C
Wind Chill: 47°F , 8°C
Dew Point: 34°F , 1°C
Humidity: 54%
Barometer: 29.90 inHg , 1012.5 hPa
Clouds: Clear
Visibility: 10 miles , 16 km
2021/04/12 11:35 KGCM 121135Z AUTO 02006KT 10SM CLR 10/01 A2990 RMK AO2
 
KTUL - Tulsa, Oklahoma, USA
Distance from station: S 35mi, 56km
Updated: Mon, 12-Apr-2021 5:53am CDT
Few Clouds
Few Clouds
 Wind from NNW
Wind: NNW 9 mph , 15 km/h
Temperature: 52°F , 11°C
Dew Point: 41°F , 5°C
Humidity: 67%
Barometer: 29.86 inHg , 1011.2 hPa
Clouds: Few Clouds
Visibility: 10 miles , 16 km
Cloud details: Few Clouds 25000 ft
2021/04/12 10:53 KTUL 121053Z 34008KT 10SM FEW250 11/05 A2986 RMK AO2 SLP105 T01060050
KRVS - Tulsa, Oklahoma, USA
Distance from station: S 46mi, 74km
Updated: Mon, 12-Apr-2021 5:53am CDT
Clear
Clear
 Wind from N
Wind: N 10 mph , 17 km/h, Gust: 22 mph , 35 km/h
Temperature: 55°F , 13°C
Dew Point: 39°F , 4°C
Humidity: 55%
Barometer: 29.87 inHg , 1011.5 hPa
Clouds: Clear
Visibility: 10 miles , 16 km
2021/04/12 10:53 KRVS 121053Z AUTO 36009G19KT 10SM CLR 13/04 A2987 RMK AO2 SLP118 T01280044
 
KPPF - Parsons, Kansas, USA
Distance from station: NNE 48mi, 76km
Updated: Mon, 12-Apr-2021 5:52am CDT

 
Barometer: 29.91 inHg , 1012.9 hPa
2021/04/12 10:52 KPPF 121052Z AUTO A2991 RMK AO2 SLPNO PWINO FZRANO TSNO $
KGMJ - Grove, Oklahoma, USA
Distance from station: E 63mi, 101km
Updated: Mon, 12-Apr-2021 6:35am CDT
Clear
Clear
 Wind from N
Wind: N 3 mph , 6 km/h
Temperature: 52°F , 11°C
Dew Point: 41°F , 5°C
Humidity: 67%
Barometer: 29.90 inHg , 1012.5 hPa
Clouds: Clear
Visibility: 10 miles , 16 km
2021/04/12 11:35 KGMJ 121135Z AUTO 36003KT 10SM CLR 11/05 A2990 RMK AO2
 
KPNC - Ponca City, Oklahoma, USA
Distance from station: W 69mi, 111km
Updated: Mon, 12-Apr-2021 5:53am CDT
Clear
Clear
 Wind from NNE
Wind: NNE 14 mph , 22 km/h
Temperature: 50°F , 10°C
Wind Chill: 45°F , 7°C
Dew Point: 30°F , -1°C
Humidity: 47%
Barometer: 29.92 inHg , 1013.2 hPa
Clouds: Clear
Visibility: 10 miles , 16 km
2021/04/12 10:53 KPNC 121053Z AUTO 02012KT 10SM CLR 10/M01 A2992 RMK AO2 SLP124 T01001011
KCNU - Chanute, Kansas, USA
Distance from station: NNE 69mi, 112km
Updated: Mon, 12-Apr-2021 5:52am CDT
Clear
Clear
 Wind from N
Wind: N 13 mph , 20 km/h
Temperature: 50°F , 10°C
Wind Chill: 45°F , 7°C
Dew Point: 32°F , 0°C
Humidity: 50%
Barometer: 29.90 inHg , 1012.5 hPa
Clouds: Clear
Visibility: 10 miles , 16 km
2021/04/12 10:52 KCNU 121052Z AUTO 36011KT 10SM CLR 10/00 A2990 RMK AO2 SLP118 T01000000